Time;durP1;ratioP1;P1;durP2;ratioP2;P2;SDS_P1;SDS_P2;PMS_P1;PMS_P2;Temp;Humidity;BMP_temperature;BMP_pressure;BME280_temperature;BME280_humidity;BME280_pressure;Samples;Min_cycle;Max_cycle;Signal;HPM_P1;HPM_P2
2024/03/05 00:00:31;;;;;;;75.40;28.00;;;9.50;99.90;;;;;;4975128;28;20059;-76
2024/03/05 00:02:58;;;;;;;81.53;27.20;;;9.50;99.90;;;;;;4990915;28;20077;-75
2024/03/05 00:05:25;;;;;;;58.13;25.67;;;9.50;99.90;;;;;;4974847;28;20106;-76
2024/03/05 00:07:52;;;;;;;73.55;28.73;;;9.50;99.90;;;;;;4974840;28;20039;-75
2024/03/05 00:10:20;;;;;;;63.10;25.40;;;9.50;99.90;;;;;;4976119;28;20039;-76
2024/03/05 00:12:47;;;;;;;65.95;25.88;;;9.50;99.90;;;;;;4991139;28;20046;-76
2024/03/05 00:15:15;;;;;;;71.13;25.17;;;9.50;99.90;;;;;;4974557;28;20073;-76
2024/03/05 00:17:43;;;;;;;66.90;26.48;;;9.50;99.90;;;;;;4975999;28;20054;-76
2024/03/05 00:20:18;;;;;;;74.82;28.58;;;9.50;99.90;;;;;;4990047;28;20046;-75
2024/03/05 00:22:47;;;;;;;73.43;27.73;;;9.50;99.90;;;;;;4990741;28;20122;-76
2024/03/05 00:25:14;;;;;;;67.90;26.30;;;9.50;99.90;;;;;;4975780;28;20078;-76
2024/03/05 00:27:41;;;;;;;78.00;26.98;;;9.50;99.90;;;;;;4990650;28;20050;-75
2024/03/05 00:30:12;;;;;;;70.50;26.75;;;9.50;99.90;;;;;;4990554;28;20047;-76
2024/03/05 00:32:39;;;;;;;65.35;26.00;;;9.50;99.90;;;;;;4974515;28;20050;-75
2024/03/05 00:35:07;;;;;;;75.70;29.70;;;9.50;99.90;;;;;;4974248;28;20043;-76
2024/03/05 00:37:38;;;;;;;70.50;29.90;;;9.60;99.90;;;;;;5006602;28;20385;-76
2024/03/05 00:40:08;;;;;;;68.45;27.42;;;9.60;99.90;;;;;;4974064;28;20135;-76
2024/03/05 00:42:35;;;;;;;69.05;29.85;;;9.60;99.90;;;;;;4975560;28;20105;-75
2024/03/05 00:45:06;;;;;;;67.32;29.55;;;9.60;99.90;;;;;;4974139;28;20078;-76
2024/03/05 00:47:34;;;;;;;77.93;29.17;;;9.60;99.90;;;;;;4987612;28;20516;-76
2024/03/05 00:50:05;;;;;;;75.35;28.90;;;9.60;99.90;;;;;;4990343;28;20039;-76
2024/03/05 00:52:32;;;;;;;67.60;25.92;;;9.60;99.90;;;;;;4990380;28;20081;-76
2024/03/05 00:55:00;;;;;;;68.07;29.25;;;9.60;99.90;;;;;;4974504;28;20137;-76
2024/03/05 00:57:27;;;;;;;68.22;27.15;;;9.60;99.90;;;;;;4989905;28;20046;-76
2024/03/05 00:59:54;;;;;;;70.80;27.52;;;9.60;99.90;;;;;;4990041;28;20051;-76
2024/03/05 01:02:21;;;;;;;66.90;28.83;;;9.50;99.90;;;;;;4989935;28;20065;-76
2024/03/05 01:04:49;;;;;;;72.40;27.98;;;9.50;99.90;;;;;;4975267;28;20050;-75
2024/03/05 01:07:17;;;;;;;62.30;25.30;;;9.50;99.90;;;;;;4989780;28;20138;-76
2024/03/05 01:09:44;;;;;;;65.85;26.30;;;9.50;99.90;;;;;;4973955;28;20043;-75
2024/03/05 01:12:11;;;;;;;52.70;24.35;;;9.50;99.90;;;;;;4989731;28;20045;-76
2024/03/05 01:14:40;;;;;;;64.03;26.23;;;9.50;99.90;;;;;;4973888;28;20083;-75
2024/03/05 01:17:08;;;;;;;70.00;28.50;;;9.40;99.90;;;;;;4989446;28;20053;-76
2024/03/05 01:19:36;;;;;;;63.78;31.58;;;9.40;99.90;;;;;;4989823;28;20475;-75
2024/03/05 01:22:03;;;;;;;58.28;24.13;;;9.40;99.90;;;;;;4989382;28;20047;-75
2024/03/05 01:24:31;;;;;;;64.50;27.17;;;9.40;99.90;;;;;;4974656;28;20097;-76
2024/03/05 01:26:58;;;;;;;28.40;15.70;;;9.40;99.90;;;;;;4989665;28;20050;-75
2024/03/05 01:29:25;;;;;;;53.50;24.27;;;9.30;99.90;;;;;;4973572;28;20484;-75
2024/03/05 01:31:56;;;;;;;57.72;25.15;;;9.30;99.90;;;;;;4973758;28;20038;-75
2024/03/05 01:34:24;;;;;;;63.10;27.80;;;9.20;99.90;;;;;;4973862;28;20074;-75
2024/03/05 01:36:56;;;;;;;64.82;26.63;;;9.20;99.90;;;;;;4989529;28;20125;-76
2024/03/05 01:39:28;;;;;;;51.88;28.17;;;9.20;99.90;;;;;;4989067;28;20416;-76
2024/03/05 01:41:56;;;;;;;67.47;27.70;;;9.20;99.90;;;;;;4989385;28;20106;-76
2024/03/05 01:44:24;;;;;;;72.05;28.88;;;9.20;99.90;;;;;;4973129;28;20047;-75
2024/03/05 01:46:56;;;;;;;68.47;28.80;;;9.20;99.90;;;;;;4973246;28;20043;-75
2024/03/05 01:49:25;;;;;;;64.90;26.50;;;9.20;99.90;;;;;;4989101;28;20057;-75
2024/03/05 01:51:54;;;;;;;61.75;29.73;;;9.20;99.90;;;;;;4973192;28;20097;-76
2024/03/05 01:54:23;;;;;;;72.25;31.25;;;9.20;99.90;;;;;;4973986;28;20377;-75
2024/03/05 01:56:59;;;;;;;33.17;16.33;;;9.20;99.90;;;;;;4988990;28;20074;-75
2024/03/05 01:59:26;;;;;;;63.17;26.55;;;9.20;99.90;;;;;;4973394;28;20046;-76
2024/03/05 02:01:53;;;;;;;38.00;16.80;;;9.20;99.90;;;;;;4972891;28;20042;-75
2024/03/05 02:04:23;;;;;;;42.45;19.48;;;9.30;99.90;;;;;;4973900;28;20236;-76
2024/03/05 02:06:52;;;;;;;38.22;17.38;;;9.20;99.90;;;;;;4973024;28;20047;-76
2024/03/05 02:09:21;;;;;;;52.95;24.80;;;9.20;99.90;;;;;;4988529;28;20074;-76
2024/03/05 02:11:49;;;;;;;50.28;24.20;;;9.20;99.90;;;;;;4988892;28;20061;-76
2024/03/05 02:14:22;;;;;;;56.45;25.05;;;9.20;99.90;;;;;;4973821;28;20049;-76
2024/03/05 02:16:50;;;;;;;58.22;23.92;;;9.20;99.90;;;;;;4972823;28;20038;-76
2024/03/05 02:19:17;;;;;;;50.42;23.13;;;9.30;99.90;;;;;;4988627;28;20051;-76
2024/03/05 02:21:44;;;;;;;53.35;25.25;;;9.30;99.90;;;;;;4988778;28;20515;-76
2024/03/05 02:24:11;;;;;;;53.53;24.40;;;9.30;99.90;;;;;;4973849;28;20047;-76
2024/03/05 02:26:39;;;;;;;50.30;24.42;;;9.30;99.90;;;;;;4988520;28;20043;-76
2024/03/05 02:29:09;;;;;;;37.47;19.35;;;9.30;99.90;;;;;;4988509;28;20444;-76
2024/03/05 02:31:36;;;;;;;39.35;21.48;;;9.30;99.90;;;;;;4972409;28;20054;-75
2024/03/05 02:34:04;;;;;;;46.58;20.98;;;9.30;99.90;;;;;;4972487;28;20509;-75
2024/03/05 02:36:31;;;;;;;53.97;24.83;;;9.20;99.90;;;;;;4988353;28;20046;-75
2024/03/05 02:38:58;;;;;;;44.28;21.90;;;9.20;99.90;;;;;;4972256;28;20050;-75
2024/03/05 02:41:27;;;;;;;59.22;25.10;;;9.20;99.90;;;;;;4972219;28;20492;-76
2024/03/05 02:43:55;;;;;;;57.35;25.90;;;9.20;99.90;;;;;;4977303;28;20097;-76
2024/03/05 02:46:24;;;;;;;62.22;27.08;;;9.20;99.90;;;;;;4994671;28;20050;-76
2024/03/05 02:48:51;;;;;;;62.42;26.48;;;9.20;99.90;;;;;;4994774;28;20093;-76
2024/03/05 02:51:18;;;;;;;62.72;27.75;;;9.30;99.90;;;;;;4994704;28;20042;-76
2024/03/05 02:53:46;;;;;;;56.42;25.00;;;9.30;99.90;;;;;;4994981;28;20072;-76
2024/03/05 02:56:13;;;;;;;58.03;26.73;;;9.30;99.90;;;;;;4978944;28;20046;-75
2024/03/05 02:58:41;;;;;;;59.00;25.48;;;9.30;99.90;;;;;;4978578;28;20046;-76
2024/03/05 03:01:09;;;;;;;62.65;25.92;;;9.30;99.90;;;;;;4978981;28;20046;-75
2024/03/05 03:03:36;;;;;;;52.42;24.17;;;9.30;99.90;;;;;;4978773;28;20057;-76
2024/03/05 03:06:03;;;;;;;55.85;26.90;;;9.40;99.90;;;;;;4978795;28;20049;-76
2024/03/05 03:08:32;;;;;;;56.25;25.92;;;9.40;99.90;;;;;;4978526;28;20051;-76
2024/03/05 03:10:59;;;;;;;51.05;25.25;;;9.40;99.90;;;;;;4978605;28;20043;-76
2024/03/05 03:13:26;;;;;;;55.70;25.98;;;9.40;99.90;;;;;;4978540;28;20043;-76
2024/03/05 03:15:53;;;;;;;55.97;27.20;;;9.40;99.90;;;;;;4994938;28;20057;-75
2024/03/05 03:18:20;;;;;;;54.40;25.75;;;9.40;99.90;;;;;;5011054;28;20047;-76
2024/03/05 03:20:47;;;;;;;27.05;15.40;;;9.40;99.90;;;;;;4978606;28;20430;-76
2024/03/05 03:23:14;;;;;;;58.97;27.45;;;9.40;99.90;;;;;;5010895;28;20126;-76
2024/03/05 03:25:42;;;;;;;60.45;24.83;;;9.40;99.90;;;;;;4994649;28;20047;-76
2024/03/05 03:28:09;;;;;;;54.95;26.60;;;9.50;99.90;;;;;;4978415;28;20046;-76
2024/03/05 03:30:36;;;;;;;57.55;27.88;;;9.50;99.90;;;;;;4994696;28;20059;-76
2024/03/05 03:33:04;;;;;;;54.63;26.30;;;9.50;99.90;;;;;;4993184;28;20050;-76
2024/03/05 03:35:31;;;;;;;53.53;26.77;;;9.50;99.90;;;;;;4994002;28;20042;-76
2024/03/05 03:38:00;;;;;;;52.22;24.65;;;9.50;99.90;;;;;;4977535;28;20047;-76
2024/03/05 03:40:33;;;;;;;57.42;26.52;;;9.50;99.90;;;;;;4993879;28;20047;-76
2024/03/05 03:43:00;;;;;;;57.47;28.48;;;9.50;99.90;;;;;;4979188;28;20572;-76
2024/03/05 03:45:27;;;;;;;53.65;26.63;;;9.50;99.90;;;;;;4979338;28;20065;-76
2024/03/05 03:47:54;;;;;;;57.15;29.50;;;9.50;99.90;;;;;;4962107;28;20050;-76
2024/03/05 03:50:22;;;;;;;56.78;26.38;;;9.50;99.90;;;;;;4978060;28;20051;-75
2024/03/05 03:52:49;;;;;;;58.08;26.63;;;9.50;99.90;;;;;;4978213;28;20046;-76
2024/03/05 03:55:16;;;;;;;58.22;25.85;;;9.50;99.90;;;;;;4991808;28;20050;-76
2024/03/05 03:57:45;;;;;;;49.15;24.60;;;9.50;99.90;;;;;;4991225;28;20051;-76
2024/03/05 04:00:16;;;;;;;50.28;26.20;;;9.50;99.90;;;;;;4973889;28;20093;-76
2024/03/05 04:02:46;;;;;;;57.72;25.90;;;9.50;99.90;;;;;;4974910;28;20121;-76
2024/03/05 04:05:13;;;;;;;54.95;25.13;;;9.50;99.90;;;;;;4973907;28;20054;-76
2024/03/05 04:07:40;;;;;;;61.72;29.25;;;9.50;99.90;;;;;;4974402;28;20094;-76
2024/03/05 04:10:10;;;;;;;54.05;24.75;;;9.50;99.90;;;;;;4991283;28;20047;-76
2024/03/05 04:12:39;;;;;;;56.20;25.88;;;9.50;99.90;;;;;;5007355;28;20043;-75
2024/03/05 04:15:08;;;;;;;53.30;25.30;;;9.50;99.90;;;;;;4974680;28;20053;-76
2024/03/05 04:17:37;;;;;;;56.75;28.52;;;9.50;99.90;;;;;;5007001;28;20444;-76
2024/03/05 04:20:08;;;;;;;55.00;23.77;;;9.50;99.90;;;;;;5007506;28;20453;-76
2024/03/05 04:22:39;;;;;;;60.67;29.38;;;9.50;99.90;;;;;;4991013;28;20448;-76
2024/03/05 04:25:06;;;;;;;62.78;29.13;;;9.50;99.90;;;;;;5007309;28;20401;-76
2024/03/05 04:27:35;;;;;;;53.55;24.13;;;9.50;99.90;;;;;;4975397;28;20039;-76
2024/03/05 04:30:10;;;;;;;61.05;25.08;;;9.50;99.90;;;;;;4974546;28;20102;-76
2024/03/05 04:32:40;;;;;;;62.55;26.05;;;9.50;99.90;;;;;;4958430;28;20472;-76
2024/03/05 04:35:11;;;;;;;56.55;26.88;;;9.50;99.90;;;;;;4974469;28;20047;-76
2024/03/05 04:37:39;;;;;;;64.20;26.55;;;9.50;99.90;;;;;;4975484;28;20133;-75
2024/03/05 04:40:10;;;;;;;58.33;26.85;;;9.50;99.90;;;;;;4958315;28;20073;-75
2024/03/05 04:42:37;;;;;;;56.05;26.15;;;9.50;99.90;;;;;;4974446;28;20070;-75
2024/03/05 04:45:04;;;;;;;60.63;29.52;;;9.50;99.90;;;;;;4974265;28;20464;-76
2024/03/05 04:47:31;;;;;;;61.53;27.55;;;9.50;99.90;;;;;;5006716;28;20596;-75
2024/03/05 04:49:59;;;;;;;61.78;27.02;;;9.50;99.90;;;;;;4974409;28;20104;-75
2024/03/05 04:52:27;;;;;;;61.30;27.80;;;9.50;99.90;;;;;;4990570;28;20485;-76
2024/03/05 04:54:57;;;;;;;69.00;29.52;;;9.50;99.90;;;;;;4989694;28;20485;-75
2024/03/05 04:57:24;;;;;;;66.97;28.23;;;9.50;99.90;;;;;;4974064;28;20054;-76
2024/03/05 04:59:51;;;;;;;66.20;29.38;;;9.50;99.90;;;;;;4989947;28;20047;-76
2024/03/05 05:02:19;;;;;;;62.80;26.73;;;9.50;99.90;;;;;;4990070;28;20054;-75
2024/03/05 05:04:47;;;;;;;65.13;26.70;;;9.50;99.90;;;;;;4973762;28;20051;-76
2024/03/05 05:07:16;;;;;;;64.00;27.30;;;9.50;99.90;;;;;;4973550;28;20043;-75
2024/03/05 05:09:44;;;;;;;60.15;26.70;;;9.50;99.90;;;;;;4989593;28;20492;-76
2024/03/05 05:12:11;;;;;;;63.95;25.80;;;9.40;99.90;;;;;;4973818;28;20043;-75
2024/03/05 05:14:38;;;;;;;68.85;28.23;;;9.40;99.90;;;;;;5006094;28;20053;-76
2024/03/05 05:17:06;;;;;;;77.53;32.50;;;9.40;99.90;;;;;;5006117;28;20400;-75
2024/03/05 05:19:33;;;;;;;66.57;29.73;;;9.40;99.90;;;;;;4974925;28;20134;-76
2024/03/05 05:22:00;;;;;;;69.88;32.05;;;9.40;99.90;;;;;;4974801;28;20459;-76
2024/03/05 05:24:27;;;;;;;68.45;28.45;;;9.40;99.90;;;;;;4973535;28;20050;-76
2024/03/05 05:26:54;;;;;;;70.55;30.30;;;9.40;99.90;;;;;;4973508;28;20078;-76
2024/03/05 05:29:21;;;;;;;66.35;26.27;;;9.40;99.90;;;;;;4973604;28;20489;-75
2024/03/05 05:31:52;;;;;;;64.25;29.35;;;9.40;99.90;;;;;;4988809;28;20046;-75
2024/03/05 05:34:19;;;;;;;66.32;29.10;;;9.40;99.90;;;;;;4974717;28;20039;-76
2024/03/05 05:36:46;;;;;;;74.40;34.45;;;9.40;99.90;;;;;;4989229;28;20436;-75
2024/03/05 05:39:14;;;;;;;63.70;28.52;;;9.30;99.90;;;;;;4973119;28;20054;-76
2024/03/05 05:41:41;;;;;;;69.90;29.60;;;9.30;99.90;;;;;;5005451;28;20046;-76
2024/03/05 05:44:10;;;;;;;65.97;27.60;;;9.30;99.90;;;;;;4989226;28;20492;-76
2024/03/05 05:46:37;;;;;;;74.50;30.73;;;9.30;99.90;;;;;;4972814;28;20101;-76
2024/03/05 05:49:05;;;;;;;75.25;28.30;;;9.30;99.90;;;;;;4972906;28;20142;-75
2024/03/05 05:51:35;;;;;;;64.88;28.63;;;9.30;99.90;;;;;;4989135;28;20046;-76
2024/03/05 05:54:10;;;;;;;74.93;31.20;;;9.30;99.90;;;;;;4988854;28;20343;-76
2024/03/05 05:56:38;;;;;;;67.47;28.90;;;9.30;99.90;;;;;;4988062;28;20567;-76
2024/03/05 05:59:08;;;;;;;65.47;28.90;;;9.30;99.90;;;;;;4988851;28;20507;-76
2024/03/05 06:01:37;;;;;;;72.88;27.77;;;9.30;99.90;;;;;;4971228;28;20051;-76
2024/03/05 06:04:07;;;;;;;77.30;30.63;;;9.30;99.90;;;;;;4972978;28;20051;-76
2024/03/05 06:06:36;;;;;;;75.47;29.70;;;9.30;99.90;;;;;;4971077;28;20480;-76
2024/03/05 06:09:08;;;;;;;75.35;30.90;;;9.30;99.90;;;;;;4988706;28;20043;-75
2024/03/05 06:11:36;;;;;;;73.32;29.45;;;9.30;99.90;;;;;;4988847;28;20146;-74
2024/03/05 06:14:06;;;;;;;70.07;31.75;;;9.30;99.90;;;;;;4988649;28;20498;-75
2024/03/05 06:16:33;;;;;;;64.13;28.35;;;9.30;99.90;;;;;;4974015;28;20047;-75
2024/03/05 06:19:01;;;;;;;76.93;28.75;;;9.30;99.90;;;;;;4972018;28;20476;-75
2024/03/05 06:21:28;;;;;;;72.75;28.63;;;9.30;99.90;;;;;;4988882;28;20055;-74
2024/03/05 06:23:55;;;;;;;73.05;30.27;;;9.30;99.90;;;;;;4988332;28;20561;-74
2024/03/05 06:26:23;;;;;;;85.57;29.80;;;9.20;99.90;;;;;;4972772;28;20046;-74
2024/03/05 06:28:50;;;;;;;75.00;30.30;;;9.20;99.90;;;;;;4972195;28;20719;-74
2024/03/05 06:31:17;;;;;;;66.65;27.70;;;9.20;99.90;;;;;;4988683;28;20101;-75
2024/03/05 06:33:44;;;;;;;78.03;30.30;;;9.20;99.90;;;;;;4973598;28;20078;-75
2024/03/05 06:36:12;;;;;;;68.30;29.25;;;9.20;99.90;;;;;;4973760;28;20043;-74
2024/03/05 06:38:39;;;;;;;70.28;29.80;;;9.20;99.90;;;;;;4973546;28;20053;-74
2024/03/05 06:41:09;;;;;;;74.13;29.38;;;9.20;99.90;;;;;;4988157;28;20082;-74
2024/03/05 06:43:36;;;;;;;64.72;27.02;;;9.20;99.90;;;;;;4973699;28;20473;-74
2024/03/05 06:46:04;;;;;;;76.28;29.80;;;9.20;99.90;;;;;;5004554;28;20058;-75
2024/03/05 06:48:32;;;;;;;72.75;29.70;;;9.20;99.90;;;;;;4972184;28;20047;-75
2024/03/05 06:51:04;;;;;;;82.38;31.17;;;9.20;99.90;;;;;;4972452;28;20125;-74
2024/03/05 06:59:04;;;;;;;92.10;31.33;;;9.20;99.90;;;;;;4973289;28;20562;-74
2024/03/05 07:01:32;;;;;;;69.10;27.50;;;9.10;99.90;;;;;;4973594;28;20507;-74
2024/03/05 07:03:59;;;;;;;86.53;30.58;;;9.10;99.90;;;;;;4973118;28;20050;-75
2024/03/05 07:06:26;;;;;;;89.43;32.75;;;9.10;99.90;;;;;;4988535;28;20051;-75
2024/03/05 07:08:54;;;;;;;93.70;30.15;;;9.10;99.90;;;;;;4987958;28;20531;-74
2024/03/05 07:11:25;;;;;;;85.38;32.60;;;9.10;99.90;;;;;;4973633;28;20118;-74
2024/03/05 07:13:53;;;;;;;87.18;28.20;;;9.10;99.90;;;;;;5004084;28;20038;-74
2024/03/05 07:16:23;;;;;;;88.55;32.78;;;9.10;99.90;;;;;;4973477;28;20039;-74
2024/03/05 07:18:53;;;;;;;79.15;27.73;;;9.10;99.90;;;;;;4973207;28;20047;-75
2024/03/05 07:21:21;;;;;;;89.40;29.63;;;9.10;99.90;;;;;;4972114;28;20078;-74
2024/03/05 07:23:50;;;;;;;93.82;30.60;;;9.10;99.90;;;;;;4971886;28;20562;-74
2024/03/05 07:26:18;;;;;;;91.43;31.38;;;9.10;99.90;;;;;;4973290;28;20114;-74
2024/03/05 07:28:46;;;;;;;92.10;32.08;;;9.10;99.90;;;;;;4973439;28;20042;-75
2024/03/05 07:31:15;;;;;;;73.95;29.08;;;9.10;99.90;;;;;;4975229;28;20070;-75
2024/03/05 07:33:42;;;;;;;78.53;33.33;;;9.10;99.90;;;;;;4991943;28;20054;-75
2024/03/05 07:36:11;;;;;;;77.25;42.70;;;9.10;99.90;;;;;;4975531;28;20042;-74
2024/03/05 07:38:38;;;;;;;71.18;39.85;;;9.00;99.90;;;;;;4976707;28;20499;-74
2024/03/05 07:41:07;;;;;;;64.07;35.33;;;9.00;99.90;;;;;;4976615;28;20154;-75
2024/03/05 07:43:39;;;;;;;60.40;34.78;;;8.90;99.90;;;;;;4976332;28;20055;-75
2024/03/05 07:46:06;;;;;;;73.20;39.28;;;8.90;99.90;;;;;;4991347;28;20059;-75
2024/03/05 07:48:33;;;;;;;73.45;39.72;;;8.80;99.90;;;;;;4991383;28;20493;-75
2024/03/05 07:50:59;;;;;;;86.00;41.97;;;8.80;99.90;;;;;;4976319;28;20046;-75
2024/03/05 07:53:26;;;;;;;72.07;36.55;;;8.70;99.90;;;;;;4976401;28;20043;-75
2024/03/05 07:55:53;;;;;;;67.75;35.85;;;8.70;99.90;;;;;;4991412;28;20113;-75
2024/03/05 07:58:20;;;;;;;61.47;36.28;;;8.70;99.90;;;;;;5007081;28;20049;-75
2024/03/05 08:00:47;;;;;;;65.78;36.90;;;8.70;99.90;;;;;;4975247;28;20045;-75
2024/03/05 08:03:14;;;;;;;57.38;32.83;;;8.60;99.90;;;;;;4976193;28;20073;-75
2024/03/05 08:05:41;;;;;;;73.25;38.13;;;8.60;99.90;;;;;;4975174;28;20049;-75
2024/03/05 08:08:09;;;;;;;81.45;41.30;;;8.60;99.90;;;;;;4990997;28;20062;-76
2024/03/05 08:10:36;;;;;;;73.72;37.90;;;8.60;99.90;;;;;;4976126;28;20492;-75
2024/03/05 08:13:04;;;;;;;79.55;37.33;;;8.50;99.90;;;;;;4974984;28;20153;-75
2024/03/05 08:15:31;;;;;;;87.82;40.58;;;8.50;99.90;;;;;;4976149;28;20039;-75
2024/03/05 08:17:58;;;;;;;78.18;38.55;;;8.50;99.90;;;;;;4976077;28;20049;-75
2024/03/05 08:20:26;;;;;;;94.75;42.67;;;8.50;99.90;;;;;;4976014;28;20049;-75
2024/03/05 08:22:55;;;;;;;87.53;38.53;;;8.50;99.90;;;;;;4990681;28;20117;-75
2024/03/05 08:25:23;;;;;;;85.75;38.00;;;8.50;99.90;;;;;;4975626;28;20053;-75
2024/03/05 08:27:55;;;;;;;71.63;34.60;;;8.50;99.90;;;;;;4990614;28;20043;-75
2024/03/05 08:30:23;;;;;;;85.85;37.90;;;8.50;99.90;;;;;;4974249;28;20089;-75
2024/03/05 08:32:52;;;;;;;77.72;34.78;;;8.50;99.90;;;;;;4990681;28;20496;-75
2024/03/05 08:35:20;;;;;;;79.38;34.22;;;8.50;99.90;;;;;;4974370;28;20049;-75
2024/03/05 08:37:49;;;;;;;84.00;36.42;;;8.40;99.90;;;;;;4975659;28;20043;-75
2024/03/05 08:40:20;;;;;;;81.20;38.05;;;8.40;99.90;;;;;;4990246;28;20066;-75
2024/03/05 08:42:51;;;;;;;84.78;35.03;;;8.30;99.90;;;;;;4975413;28;20051;-75
2024/03/05 08:45:25;;;;;;;83.90;37.65;;;8.30;99.90;;;;;;4975487;28;20097;-75
2024/03/05 08:47:53;;;;;;;92.03;40.10;;;8.30;99.90;;;;;;4990525;28;20102;-75
2024/03/05 08:50:22;;;;;;;98.43;36.30;;;8.30;99.90;;;;;;4975198;28;20502;-75
2024/03/05 08:52:49;;;;;;;81.28;34.00;;;8.20;99.90;;;;;;4990295;28;20185;-75
2024/03/05 08:55:17;;;;;;;98.03;41.38;;;8.40;99.90;;;;;;4975313;28;20047;-75
2024/03/05 08:57:45;;;;;;;95.13;37.28;;;8.20;99.90;;;;;;4990256;28;20389;-75
2024/03/05 09:00:17;;;;;;;86.40;34.00;;;8.10;99.90;;;;;;4990149;28;20133;-75
2024/03/05 09:02:52;;;;;;;102.78;34.35;;;8.10;99.90;;;;;;4975201;28;20042;-75
2024/03/05 09:05:19;;;;;;;84.15;33.35;;;8.10;99.90;;;;;;4974910;28;20156;-75
2024/03/05 09:07:46;;;;;;;95.78;37.78;;;8.00;99.90;;;;;;4990843;28;20070;-75
2024/03/05 09:10:15;;;;;;;82.25;36.97;;;8.00;99.90;;;;;;4989510;28;20039;-74
2024/03/05 09:12:42;;;;;;;71.75;31.33;;;8.00;99.90;;;;;;4975092;28;20117;-75
2024/03/05 09:15:09;;;;;;;78.40;32.13;;;7.90;99.90;;;;;;4989978;28;20051;-75
2024/03/05 09:17:36;;;;;;;86.22;36.22;;;7.90;99.90;;;;;;4973804;28;20039;-74
2024/03/05 09:20:13;;;;;;;85.65;33.92;;;8.00;99.90;;;;;;4974862;28;20051;-75
2024/03/05 09:22:45;;;;;;;76.65;29.80;;;8.00;99.90;;;;;;4974835;28;20066;-75
2024/03/05 09:25:14;;;;;;;72.40;28.50;;;8.00;99.90;;;;;;4974541;28;20051;-75
2024/03/05 09:27:42;;;;;;;53.17;24.67;;;8.10;99.90;;;;;;4974809;28;20074;-75
2024/03/05 09:30:10;;;;;;;66.75;29.65;;;8.10;99.90;;;;;;4974318;28;20133;-74
2024/03/05 09:32:37;;;;;;;59.60;27.52;;;8.00;99.90;;;;;;4989437;28;20141;-75
2024/03/05 09:35:08;;;;;;;40.58;18.65;;;8.00;99.90;;;;;;4973290;28;20146;-75
2024/03/05 09:37:39;;;;;;;57.42;28.20;;;8.10;99.90;;;;;;4973878;28;20043;-75
2024/03/05 09:40:07;;;;;;;72.15;32.70;;;8.10;99.90;;;;;;4974247;28;20496;-75
2024/03/05 09:42:38;;;;;;;63.15;29.10;;;8.10;99.90;;;;;;4988846;28;20043;-75
2024/03/05 09:45:09;;;;;;;65.05;30.08;;;8.20;99.90;;;;;;4974480;28;20043;-75
2024/03/05 09:47:37;;;;;;;63.17;32.08;;;8.20;99.90;;;;;;4989149;28;20051;-75
2024/03/05 09:50:05;;;;;;;62.15;28.10;;;8.30;99.90;;;;;;4973010;28;20051;-75
2024/03/05 09:52:33;;;;;;;54.58;25.48;;;8.30;99.90;;;;;;4988410;28;20558;-75
2024/03/05 09:55:01;;;;;;;46.60;25.50;;;8.40;99.90;;;;;;4973946;28;20046;-74
2024/03/05 09:57:33;;;;;;;51.53;27.95;;;8.40;99.90;;;;;;4974100;28;20046;-74
2024/03/05 10:00:00;;;;;;;45.53;24.02;;;8.50;99.90;;;;;;4974279;28;20051;-75
2024/03/05 10:02:27;;;;;;;43.85;25.13;;;8.50;99.90;;;;;;5005223;28;20435;-74
2024/03/05 10:04:57;;;;;;;54.67;29.55;;;8.60;99.90;;;;;;4974311;28;20054;-75
2024/03/05 10:07:25;;;;;;;49.63;24.60;;;8.50;99.90;;;;;;4989141;28;20532;-74
2024/03/05 10:10:11;;;;;;;51.92;26.40;;;8.50;99.90;;;;;;4974173;28;20130;-74
2024/03/05 10:12:39;;;;;;;19.95;12.07;;;8.50;99.90;;;;;;4988857;28;20519;-74
2024/03/05 10:15:21;;;;;;;36.40;21.63;;;8.60;99.90;;;;;;4974103;28;20055;-74
2024/03/05 10:17:49;;;;;;;32.35;19.73;;;8.70;99.90;;;;;;4989056;28;20058;-74
2024/03/05 10:20:26;;;;;;;33.10;18.15;;;8.70;99.90;;;;;;4973650;28;20503;-74
2024/03/05 10:22:55;;;;;;;43.03;26.58;;;8.80;99.90;;;;;;4974005;28;20407;-74
2024/03/05 10:25:23;;;;;;;37.63;18.65;;;8.80;99.90;;;;;;4973748;28;20057;-74
2024/03/05 10:27:51;;;;;;;37.22;22.20;;;8.80;99.90;;;;;;4988668;28;20047;-74
2024/03/05 10:30:29;;;;;;;38.70;22.15;;;8.70;99.90;;;;;;4973548;28;20062;-74
2024/03/05 10:33:03;;;;;;;37.63;21.95;;;8.70;99.90;;;;;;4973891;28;20050;-73
2024/03/05 10:35:31;;;;;;;37.92;21.15;;;8.70;99.90;;;;;;4988547;28;20082;-74
2024/03/05 10:37:59;;;;;;;39.85;22.23;;;8.70;99.90;;;;;;4973820;28;20105;-74
2024/03/05 10:40:31;;;;;;;41.10;21.85;;;8.80;99.90;;;;;;4973392;28;20050;-74
2024/03/05 10:43:00;;;;;;;43.38;24.17;;;8.80;99.90;;;;;;4988530;28;20074;-74
2024/03/05 10:45:28;;;;;;;41.63;20.92;;;8.80;99.90;;;;;;4988504;28;20043;-74
2024/03/05 10:47:57;;;;;;;41.38;22.83;;;8.80;99.90;;;;;;4973779;28;20047;-74
2024/03/05 10:50:28;;;;;;;42.10;23.73;;;8.80;99.90;;;;;;4973337;28;20457;-74
2024/03/05 10:52:56;;;;;;;39.45;19.35;;;8.90;99.90;;;;;;4972465;28;20046;-74
2024/03/05 10:55:24;;;;;;;41.75;20.42;;;8.90;99.90;;;;;;4972408;28;20042;-73
2024/03/05 11:00:50;;;;;;;36.58;18.88;;;8.90;99.90;;;;;;4971824;28;20063;-73
2024/03/05 11:03:35;;;;;;;28.65;18.08;;;8.90;99.90;;;;;;4988807;28;20039;-73
2024/03/05 11:06:03;;;;;;;42.47;24.70;;;8.80;99.90;;;;;;4992273;28;20473;-74
2024/03/05 11:08:31;;;;;;;40.97;20.15;;;8.80;99.90;;;;;;4976180;28;20118;-73
2024/03/05 11:11:02;;;;;;;41.08;22.08;;;8.80;99.90;;;;;;4977435;28;20043;-74
2024/03/05 11:13:32;;;;;;;46.08;25.10;;;8.90;99.90;;;;;;4977347;28;20410;-73
2024/03/05 11:16:06;;;;;;;41.75;23.48;;;8.90;99.90;;;;;;4992592;28;20437;-73
2024/03/05 11:18:35;;;;;;;42.50;21.90;;;8.90;99.90;;;;;;4991965;28;20084;-73
2024/03/05 11:21:13;;;;;;;44.05;23.15;;;9.00;99.90;;;;;;4992193;28;20047;-73
2024/03/05 11:23:54;;;;;;;46.28;25.15;;;9.10;99.90;;;;;;4992239;28;20406;-73
2024/03/05 11:26:23;;;;;;;46.42;22.52;;;9.20;99.90;;;;;;4977568;28;20042;-73
2024/03/05 11:29:00;;;;;;;48.78;25.08;;;9.30;99.90;;;;;;5008230;28;20045;-73
2024/03/05 11:31:28;;;;;;;40.08;22.83;;;9.20;99.90;;;;;;4976965;28;20118;-73
2024/03/05 11:34:12;;;;;;;43.20;23.02;;;9.20;99.90;;;;;;4976614;28;20046;-73
2024/03/05 11:36:39;;;;;;;46.47;28.92;;;9.10;99.90;;;;;;4976139;28;20043;-73
2024/03/05 11:39:08;;;;;;;36.92;26.40;;;9.10;99.90;;;;;;4975401;28;20448;-73
2024/03/05 11:41:37;;;;;;;53.67;25.80;;;9.00;99.90;;;;;;4976668;28;20051;-73
2024/03/05 11:44:05;;;;;;;48.70;22.83;;;8.90;99.90;;;;;;4977020;28;20053;-73
2024/03/05 11:46:42;;;;;;;47.55;23.08;;;8.80;99.90;;;;;;4991722;28;20109;-73
2024/03/05 11:49:10;;;;;;;35.92;21.77;;;8.80;99.90;;;;;;4991386;28;20047;-74
2024/03/05 11:51:42;;;;;;;33.72;18.95;;;8.80;99.90;;;;;;4991053;28;20086;-75
2024/03/05 11:54:11;;;;;;;45.20;24.70;;;8.90;99.90;;;;;;4991450;28;20085;-74
2024/03/05 11:56:40;;;;;;;42.38;24.15;;;8.90;99.90;;;;;;4976502;28;20094;-74
2024/03/05 11:59:11;;;;;;;41.83;23.95;;;8.90;99.90;;;;;;5007257;28;20046;-74
2024/03/05 12:01:43;;;;;;;43.20;25.92;;;8.90;99.90;;;;;;4991097;28;20050;-74
2024/03/05 12:04:11;;;;;;;48.03;24.45;;;9.00;99.90;;;;;;4991342;28;20047;-75
2024/03/05 12:06:41;;;;;;;28.50;13.73;;;9.00;99.90;;;;;;4991275;28;20050;-74
2024/03/05 12:09:20;;;;;;;33.13;16.13;;;9.00;99.90;;;;;;4991141;28;20047;-74
2024/03/05 12:12:05;;;;;;;36.22;19.63;;;9.00;99.90;;;;;;4974886;28;20043;-74
2024/03/05 12:14:34;;;;;;;31.90;19.55;;;9.00;99.90;;;;;;4976108;28;20118;-74
2024/03/05 12:17:03;;;;;;;37.60;19.85;;;8.90;99.90;;;;;;5006465;28;20055;-74
2024/03/05 12:19:31;;;;;;;34.42;18.48;;;8.80;99.90;;;;;;4975852;28;20070;-75
2024/03/05 12:21:59;;;;;;;31.80;17.23;;;8.80;99.90;;;;;;5007242;28;20043;-74
2024/03/05 12:24:27;;;;;;;34.45;19.45;;;8.80;99.90;;;;;;4975918;28;20042;-75
2024/03/05 12:26:56;;;;;;;26.23;16.40;;;8.80;99.90;;;;;;5007157;28;20053;-74
2024/03/05 12:29:36;;;;;;;31.25;17.33;;;8.70;99.90;;;;;;4975877;28;20507;-74
2024/03/05 12:32:04;;;;;;;29.05;16.77;;;8.60;99.90;;;;;;4974745;28;20058;-74
2024/03/05 12:34:33;;;;;;;28.75;18.23;;;8.60;99.90;;;;;;4990762;28;20054;-74
2024/03/05 12:37:01;;;;;;;25.40;16.63;;;8.60;99.90;;;;;;4990616;28;20047;-74
2024/03/05 12:39:28;;;;;;;19.95;12.13;;;8.60;99.90;;;;;;4990538;28;20106;-74
2024/03/05 12:42:05;;;;;;;26.52;16.15;;;8.70;99.90;;;;;;4990446;28;20051;-74
2024/03/05 12:44:33;;;;;;;23.85;14.63;;;8.70;99.90;;;;;;4990681;28;20504;-74
2024/03/05 12:47:08;;;;;;;20.10;13.70;;;8.70;99.90;;;;;;5009471;28;20053;-74
2024/03/05 12:49:46;;;;;;;22.08;12.80;;;8.80;99.90;;;;;;4976313;28;20047;-74
2024/03/05 12:52:19;;;;;;;17.25;14.82;;;8.80;99.90;;;;;;4972350;28;20415;-75